Time;durP1;ratioP1;P1;durP2;ratioP2;P2;SDS_P1;SDS_P2;PMS_P1;PMS_P2;Temp;Humidity;BMP_temperature;BMP_pressure;BME280_temperature;BME280_humidity;BME280_pressure;Samples;Min_cycle;Max_cycle;Signal;HPM_P1;HPM_P2
2023/03/15 00:00:47;;;;;;;3.55;2.80;;;4.40;99.90;;;;;;5010024;28;20217;-66
2023/03/15 00:03:16;;;;;;;6.80;3.65;;;4.40;99.90;;;;;;5008720;28;20526;-66
2023/03/15 00:05:43;;;;;;;5.85;3.60;;;4.40;99.90;;;;;;5009489;28;20189;-65
2023/03/15 00:08:11;;;;;;;5.88;3.80;;;4.60;99.90;;;;;;5010640;28;20747;-65
2023/03/15 00:10:42;;;;;;;4.85;3.50;;;4.60;99.90;;;;;;5008819;28;20840;-64
2023/03/15 00:13:09;;;;;;;4.28;3.88;;;4.60;99.90;;;;;;5010584;28;20276;-65
2023/03/15 00:15:35;;;;;;;3.50;3.20;;;4.40;99.90;;;;;;5010235;28;20574;-64
2023/03/15 00:18:02;;;;;;;4.47;3.95;;;3.80;99.90;;;;;;5010198;28;20251;-65
2023/03/15 00:20:28;;;;;;;4.25;3.60;;;3.80;99.90;;;;;;5007613;28;20324;-65
2023/03/15 00:22:54;;;;;;;4.28;3.30;;;4.40;99.90;;;;;;5010317;28;20254;-65
2023/03/15 00:25:20;;;;;;;4.95;3.85;;;4.30;99.90;;;;;;5005054;28;20272;-64
2023/03/15 00:27:45;;;;;;;4.30;3.47;;;4.30;99.90;;;;;;5010206;28;20293;-65
2023/03/15 00:30:11;;;;;;;6.80;4.07;;;4.90;99.90;;;;;;5008241;28;20308;-64
2023/03/15 00:32:37;;;;;;;4.60;3.60;;;4.20;99.90;;;;;;5010148;28;20916;-64
2023/03/15 00:35:02;;;;;;;5.37;3.77;;;4.30;99.90;;;;;;5009864;28;20514;-64
2023/03/15 00:37:30;;;;;;;4.17;3.67;;;4.40;99.90;;;;;;5009313;28;20219;-64
2023/03/15 00:39:55;;;;;;;4.65;3.55;;;3.90;99.90;;;;;;5009821;28;20218;-64
2023/03/15 00:42:26;;;;;;;4.70;3.57;;;4.50;99.90;;;;;;5010476;28;20729;-64
2023/03/15 00:44:53;;;;;;;6.22;3.70;;;4.30;99.90;;;;;;5007268;28;20197;-65
2023/03/15 00:47:19;;;;;;;5.28;4.07;;;4.40;99.90;;;;;;5010093;28;20182;-64
2023/03/15 00:49:45;;;;;;;5.40;3.53;;;4.50;99.90;;;;;;5008639;28;20740;-64
2023/03/15 00:52:11;;;;;;;6.17;4.03;;;4.30;99.90;;;;;;5004550;28;20192;-64
2023/03/15 00:54:37;;;;;;;6.05;3.60;;;4.50;99.90;;;;;;5005317;28;20730;-63
2023/03/15 00:57:03;;;;;;;7.28;3.83;;;4.40;99.90;;;;;;5008876;28;20760;-64
2023/03/15 00:59:33;;;;;;;6.90;3.90;;;4.30;99.90;;;;;;5008995;28;20217;-65
2023/03/15 01:02:00;;;;;;;5.05;3.65;;;4.00;99.90;;;;;;5004619;28;20193;-65
2023/03/15 01:04:26;;;;;;;5.13;3.72;;;4.50;99.90;;;;;;5009280;28;20203;-64
2023/03/15 01:06:52;;;;;;;6.67;3.60;;;4.60;99.90;;;;;;5011353;28;20182;-65
2023/03/15 01:09:17;;;;;;;7.77;2.90;;;4.60;99.90;;;;;;5007555;28;20936;-65
2023/03/15 01:11:43;;;;;;;4.30;2.70;;;4.50;99.90;;;;;;5009159;28;20191;-65
2023/03/15 01:14:09;;;;;;;4.93;2.97;;;3.80;99.90;;;;;;5008381;28;21397;-64
2023/03/15 01:16:35;;;;;;;5.87;3.73;;;4.10;99.90;;;;;;4997735;28;20188;-68
2023/03/15 01:19:00;;;;;;;4.50;3.00;;;4.60;99.90;;;;;;5007841;28;20476;-69
2023/03/15 01:21:26;;;;;;;4.70;2.80;;;4.50;99.90;;;;;;5007818;28;20456;-69
2023/03/15 01:23:53;;;;;;;7.05;3.17;;;4.60;99.90;;;;;;5008199;28;20835;-69
2023/03/15 01:26:19;;;;;;;7.68;2.92;;;4.70;99.90;;;;;;5004237;28;20181;-69
2023/03/15 01:28:44;;;;;;;3.87;3.00;;;4.60;99.90;;;;;;5008859;28;20196;-69
2023/03/15 01:31:22;;;;;;;3.27;2.47;;;4.30;99.90;;;;;;5035593;28;20219;-66
2023/03/15 01:33:48;;;;;;;4.95;3.22;;;4.30;99.90;;;;;;5007275;28;20220;-66
2023/03/15 01:36:14;;;;;;;3.10;2.17;;;4.60;99.90;;;;;;5007843;28;20230;-64
2023/03/15 01:38:39;;;;;;;4.75;3.20;;;4.10;99.90;;;;;;5007171;28;20698;-68
2023/03/15 01:41:05;;;;;;;4.30;2.60;;;3.60;99.90;;;;;;5004141;28;20217;-66
2023/03/15 01:43:32;;;;;;;3.83;2.40;;;3.80;99.90;;;;;;5008001;28;20460;-66
2023/03/15 01:46:22;;;;;;;4.80;2.60;;;4.20;99.90;;;;;;5007893;28;20193;-67
2023/03/15 01:49:06;;;;;;;4.10;2.75;;;4.00;99.90;;;;;;5008131;28;20205;-67
2023/03/15 01:51:44;;;;;;;2.95;2.47;;;3.90;99.90;;;;;;5019615;28;20195;-67
2023/03/15 01:54:17;;;;;;;3.97;2.83;;;4.00;99.90;;;;;;5008244;28;20216;-66
2023/03/15 01:56:51;;;;;;;4.70;2.63;;;3.70;99.90;;;;;;5005797;28;20280;-68
2023/03/15 01:59:26;;;;;;;6.70;3.10;;;3.70;99.90;;;;;;5007580;28;20292;-65
2023/03/15 02:01:53;;;;;;;3.85;2.00;;;4.00;99.90;;;;;;5006487;28;20511;-67
2023/03/15 02:04:26;;;;;;;3.10;2.40;;;3.80;99.90;;;;;;5009317;28;20202;-64
2023/03/15 02:06:58;;;;;;;3.83;1.75;;;3.50;99.90;;;;;;5009943;28;20688;-64
2023/03/15 02:09:48;;;;;;;4.88;2.10;;;3.70;99.90;;;;;;5007820;28;20228;-64
2023/03/15 02:12:14;;;;;;;4.10;2.45;;;3.80;99.90;;;;;;5010643;28;20262;-65
2023/03/15 02:14:40;;;;;;;5.23;1.83;;;3.80;99.90;;;;;;5011787;28;20227;-65
2023/03/15 02:17:06;;;;;;;2.75;1.85;;;3.70;99.90;;;;;;5011068;28;20210;-64
2023/03/15 02:19:34;;;;;;;3.80;1.73;;;3.50;99.90;;;;;;5010425;28;20212;-65
2023/03/15 02:22:26;;;;;;;7.68;2.22;;;3.80;99.90;;;;;;5012769;28;20586;-65
2023/03/15 02:25:24;;;;;;;3.55;1.75;;;3.50;99.90;;;;;;5009330;28;20193;-66
2023/03/15 02:27:50;;;;;;;2.08;1.88;;;3.60;99.90;;;;;;5009623;28;20709;-66
2023/03/15 02:30:16;;;;;;;2.22;1.65;;;2.90;99.90;;;;;;5011603;28;20602;-65
2023/03/15 02:32:42;;;;;;;2.40;1.70;;;3.60;99.90;;;;;;5011594;28;20239;-66
2023/03/15 02:35:08;;;;;;;1.55;1.10;;;3.40;99.90;;;;;;5010591;28;20190;-66
2023/03/15 02:37:34;;;;;;;1.85;1.35;;;3.60;99.90;;;;;;5011434;28;20573;-65
2023/03/15 02:39:59;;;;;;;1.80;1.47;;;3.50;99.90;;;;;;5008758;28;20203;-66
2023/03/15 02:42:25;;;;;;;2.00;1.23;;;3.30;99.90;;;;;;5008832;28;20188;-66
2023/03/15 02:44:53;;;;;;;5.20;1.50;;;3.30;99.90;;;;;;5011780;28;20193;-65
2023/03/15 02:47:26;;;;;;;2.55;1.33;;;3.40;99.90;;;;;;5011597;28;20243;-66
2023/03/15 02:49:53;;;;;;;2.55;1.17;;;2.80;99.90;;;;;;5009319;28;20282;-66
2023/03/15 02:52:19;;;;;;;2.40;1.40;;;3.20;99.90;;;;;;5011075;28;20176;-65
2023/03/15 02:54:45;;;;;;;2.20;1.50;;;3.30;99.90;;;;;;5009861;28;20204;-66
2023/03/15 02:57:16;;;;;;;2.40;1.70;;;2.90;99.90;;;;;;5010097;28;20589;-66
2023/03/15 02:59:41;;;;;;;1.80;1.48;;;3.80;99.90;;;;;;5010598;28;20992;-66
2023/03/15 03:02:10;;;;;;;3.33;1.40;;;3.30;99.90;;;;;;5010266;28;20201;-66
2023/03/15 03:04:36;;;;;;;2.58;1.42;;;3.30;99.90;;;;;;5010507;28;20194;-67
2023/03/15 03:07:02;;;;;;;6.50;2.30;;;3.10;99.90;;;;;;5010648;28;20188;-65
2023/03/15 03:09:28;;;;;;;4.10;1.57;;;3.10;99.90;;;;;;5009916;28;20869;-66
2023/03/15 03:11:53;;;;;;;5.17;1.50;;;3.20;99.90;;;;;;5010216;28;20298;-66
2023/03/15 03:14:22;;;;;;;3.27;1.37;;;2.40;99.90;;;;;;5009747;28;20290;-66
2023/03/15 03:16:48;;;;;;;2.90;1.20;;;3.00;99.90;;;;;;5008998;28;20215;-66
2023/03/15 03:19:14;;;;;;;8.00;1.65;;;3.20;99.90;;;;;;5008877;28;20272;-66
2023/03/15 03:21:42;;;;;;;5.03;1.50;;;3.20;99.90;;;;;;5010198;28;20198;-67
2023/03/15 03:24:08;;;;;;;4.00;1.48;;;3.50;99.90;;;;;;5010466;28;20192;-66
2023/03/15 03:26:33;;;;;;;3.85;1.27;;;3.40;99.90;;;;;;5009858;28;20193;-66
2023/03/15 03:28:59;;;;;;;1.63;1.47;;;2.90;99.90;;;;;;5010706;28;20185;-67
2023/03/15 03:31:26;;;;;;;3.57;1.47;;;2.50;99.90;;;;;;5009939;28;20200;-65
2023/03/15 03:33:54;;;;;;;3.28;2.00;;;3.50;99.90;;;;;;5010180;28;20446;-66
2023/03/15 03:36:20;;;;;;;3.10;1.70;;;3.20;99.90;;;;;;5010798;28;20227;-68
2023/03/15 03:38:46;;;;;;;3.10;1.80;;;3.10;99.90;;;;;;5025252;28;20216;-65
2023/03/15 03:41:13;;;;;;;2.40;1.50;;;2.90;99.90;;;;;;5009142;28;20268;-66
2023/03/15 03:43:39;;;;;;;1.90;1.33;;;2.70;99.90;;;;;;5010239;28;20249;-65
2023/03/15 03:46:05;;;;;;;2.45;1.48;;;2.90;99.90;;;;;;5010092;28;20202;-65
2023/03/15 03:48:32;;;;;;;2.15;1.40;;;2.90;99.90;;;;;;5007900;28;20202;-66
2023/03/15 03:50:58;;;;;;;4.13;1.50;;;2.60;99.90;;;;;;5008957;28;20215;-65
2023/03/15 03:53:24;;;;;;;2.45;1.75;;;2.90;99.90;;;;;;5009787;28;20191;-65
2023/03/15 03:55:50;;;;;;;1.80;1.52;;;2.50;99.90;;;;;;5007708;28;20250;-66
2023/03/15 03:58:15;;;;;;;3.22;1.50;;;2.60;99.90;;;;;;5010192;28;20215;-65
2023/03/15 04:00:41;;;;;;;2.07;1.70;;;2.60;99.90;;;;;;5008797;28;20333;-66
2023/03/15 04:03:07;;;;;;;1.60;1.50;;;2.60;99.90;;;;;;5009750;28;20187;-66
2023/03/15 04:05:34;;;;;;;3.17;2.05;;;2.70;99.90;;;;;;5009637;28;20183;-66
2023/03/15 04:07:59;;;;;;;3.42;2.05;;;2.70;99.90;;;;;;5009481;28;20274;-66
2023/03/15 04:10:28;;;;;;;8.20;1.87;;;2.50;99.90;;;;;;5008697;28;20309;-66
2023/03/15 04:12:55;;;;;;;3.30;2.22;;;2.60;99.90;;;;;;5008484;28;20191;-66
2023/03/15 04:15:22;;;;;;;2.72;1.73;;;2.60;99.90;;;;;;5009793;28;20201;-66
2023/03/15 04:17:54;;;;;;;3.42;2.15;;;2.70;99.90;;;;;;5009309;28;20206;-68
2023/03/15 04:20:25;;;;;;;3.55;2.05;;;2.10;99.90;;;;;;5008343;28;20200;-65
2023/03/15 04:22:51;;;;;;;5.55;2.40;;;2.80;99.90;;;;;;5038426;28;20211;-66
2023/03/15 04:25:18;;;;;;;5.28;2.40;;;2.20;99.90;;;;;;5008752;28;20187;-65
2023/03/15 04:27:44;;;;;;;4.50;2.13;;;2.80;99.90;;;;;;5010010;28;20257;-66
2023/03/15 04:30:11;;;;;;;2.67;2.07;;;2.60;99.90;;;;;;5009669;28;20218;-66
2023/03/15 04:32:37;;;;;;;5.60;1.90;;;2.70;99.90;;;;;;5008957;28;21046;-65
2023/03/15 04:35:03;;;;;;;3.73;2.00;;;2.60;99.90;;;;;;5009587;28;20203;-65
2023/03/15 04:37:31;;;;;;;4.40;2.58;;;2.60;99.90;;;;;;5024569;28;20470;-66
2023/03/15 04:39:57;;;;;;;4.85;2.15;;;2.50;99.90;;;;;;5008619;28;20222;-65
2023/03/15 04:42:24;;;;;;;5.23;2.30;;;2.60;99.90;;;;;;5006468;28;20191;-66
2023/03/15 04:44:50;;;;;;;4.30;2.17;;;2.60;99.90;;;;;;5009448;28;20437;-68
2023/03/15 04:47:16;;;;;;;2.97;2.30;;;2.40;99.90;;;;;;5009234;28;20189;-66
2023/03/15 04:49:42;;;;;;;4.40;2.60;;;1.90;99.90;;;;;;5007416;28;20216;-65
2023/03/15 04:52:08;;;;;;;3.40;2.60;;;2.50;99.90;;;;;;5009301;28;20496;-66
2023/03/15 04:54:33;;;;;;;4.80;2.40;;;2.30;99.90;;;;;;5009192;28;20234;-67
2023/03/15 04:56:59;;;;;;;2.97;2.60;;;2.10;99.90;;;;;;5008416;28;20727;-67
2023/03/15 04:59:24;;;;;;;4.60;2.90;;;2.40;99.90;;;;;;5008899;28;20289;-67
2023/03/15 05:01:50;;;;;;;3.37;2.77;;;2.30;99.90;;;;;;5008495;28;20317;-68
2023/03/15 05:04:16;;;;;;;5.60;3.70;;;2.30;99.90;;;;;;5008079;28;20318;-68
2023/03/15 05:06:41;;;;;;;3.43;2.87;;;2.30;99.90;;;;;;5009654;28;20241;-68
2023/03/15 05:09:07;;;;;;;5.40;3.20;;;2.20;99.90;;;;;;5014055;28;20684;-66
2023/03/15 05:11:32;;;;;;;4.20;3.40;;;2.50;99.90;;;;;;5007919;28;20198;-66
2023/03/15 05:13:58;;;;;;;5.70;3.07;;;2.80;99.90;;;;;;5008243;28;20183;-66
2023/03/15 05:16:24;;;;;;;4.80;2.60;;;2.40;99.90;;;;;;5008698;28;20183;-67
2023/03/15 05:18:50;;;;;;;3.85;2.53;;;2.50;99.90;;;;;;5007407;28;20203;-68
2023/03/15 05:21:15;;;;;;;4.20;3.13;;;2.40;99.90;;;;;;5008952;28;20199;-68
2023/03/15 05:23:41;;;;;;;2.77;2.50;;;2.30;99.90;;;;;;5008401;28;20323;-68
2023/03/15 05:26:07;;;;;;;3.07;2.60;;;2.40;99.90;;;;;;5007447;28;20187;-68
2023/03/15 05:28:32;;;;;;;3.40;2.80;;;2.60;99.90;;;;;;5008932;28;20199;-66
2023/03/15 05:30:58;;;;;;;5.20;3.03;;;2.90;99.90;;;;;;5008240;28;20203;-66
2023/03/15 05:33:24;;;;;;;4.77;4.17;;;2.30;99.90;;;;;;5006030;28;20198;-69
2023/03/15 05:35:52;;;;;;;5.77;3.60;;;2.90;99.90;;;;;;5008586;28;20192;-68
2023/03/15 05:38:18;;;;;;;4.20;3.13;;;2.50;99.90;;;;;;5008988;28;20230;-67
2023/03/15 05:40:44;;;;;;;4.40;3.10;;;1.70;99.90;;;;;;5009472;28;20199;-65
2023/03/15 05:43:11;;;;;;;4.15;3.75;;;2.30;99.90;;;;;;5008940;28;20187;-65
2023/03/15 05:45:37;;;;;;;7.93;3.80;;;2.40;99.90;;;;;;5010277;28;20185;-65
2023/03/15 05:48:03;;;;;;;5.05;3.67;;;2.40;99.90;;;;;;5010323;28;20199;-65
2023/03/15 05:50:29;;;;;;;4.28;3.88;;;2.40;99.90;;;;;;5007988;28;20214;-66
2023/03/15 05:52:56;;;;;;;7.18;5.35;;;2.30;99.90;;;;;;5025696;28;20286;-69
2023/03/15 05:55:22;;;;;;;5.50;3.17;;;2.00;99.90;;;;;;5011095;28;20270;-69
2023/03/15 05:57:48;;;;;;;6.15;3.08;;;2.30;99.90;;;;;;5011982;28;20613;-68
2023/03/15 06:00:15;;;;;;;5.30;3.40;;;1.80;99.90;;;;;;5011647;28;20207;-67
2023/03/15 06:02:42;;;;;;;4.30;3.53;;;2.40;99.90;;;;;;5009272;28;20198;-67
2023/03/15 06:05:08;;;;;;;4.60;2.90;;;2.30;99.90;;;;;;5044289;28;20209;-67
2023/03/15 06:07:34;;;;;;;4.22;3.33;;;2.40;99.90;;;;;;5012142;28;20668;-67
2023/03/15 06:09:59;;;;;;;4.57;3.50;;;1.70;99.90;;;;;;5009918;28;20207;-67
2023/03/15 06:12:25;;;;;;;4.93;3.60;;;2.40;99.90;;;;;;5010039;28;20356;-67
2023/03/15 06:14:51;;;;;;;5.10;3.63;;;2.40;99.90;;;;;;5011660;28;20187;-67
2023/03/15 06:17:16;;;;;;;4.60;3.07;;;2.50;99.90;;;;;;5011697;28;20477;-67
2023/03/15 06:19:42;;;;;;;4.97;3.80;;;2.40;99.90;;;;;;5011064;28;20246;-66
2023/03/15 06:22:08;;;;;;;9.03;3.40;;;2.40;99.90;;;;;;5011251;28;20190;-67
2023/03/15 06:24:33;;;;;;;6.17;4.30;;;2.20;99.90;;;;;;5009604;28;20735;-66
2023/03/15 06:26:59;;;;;;;5.60;4.20;;;2.40;99.90;;;;;;5011363;28;20625;-68
2023/03/15 06:29:25;;;;;;;7.10;3.30;;;1.80;99.90;;;;;;5010568;28;20212;-67
2023/03/15 06:31:51;;;;;;;5.70;3.17;;;2.30;99.90;;;;;;5011107;28;20198;-68
2023/03/15 06:34:18;;;;;;;7.45;3.42;;;3.00;99.90;;;;;;5010645;28;20187;-68
2023/03/15 06:36:44;;;;;;;4.72;3.13;;;2.70;99.90;;;;;;5012077;28;20726;-67
2023/03/15 06:39:11;;;;;;;7.70;3.22;;;3.00;99.90;;;;;;5010669;28;20226;-68
2023/03/15 06:41:42;;;;;;;5.35;3.15;;;3.30;99.90;;;;;;5041502;28;20187;-67
2023/03/15 06:44:08;;;;;;;3.17;2.50;;;2.90;99.90;;;;;;5012101;28;20206;-67
2023/03/15 06:46:34;;;;;;;4.28;3.03;;;3.20;99.90;;;;;;5010856;28;20183;-67
2023/03/15 06:49:00;;;;;;;8.80;3.60;;;3.30;99.90;;;;;;5008694;28;20197;-67
2023/03/15 06:51:25;;;;;;;5.90;3.37;;;3.40;99.90;;;;;;5008975;28;20198;-67
2023/03/15 06:53:51;;;;;;;6.47;3.20;;;3.50;99.90;;;;;;5008694;28;20188;-67
2023/03/15 06:56:17;;;;;;;4.90;3.07;;;3.60;99.90;;;;;;5010081;28;20454;-66
2023/03/15 06:58:43;;;;;;;3.93;2.83;;;3.50;99.90;;;;;;5010489;28;20471;-66
2023/03/15 07:01:12;;;;;;;6.27;2.90;;;4.00;99.90;;;;;;5009911;28;20212;-67
2023/03/15 07:03:37;;;;;;;8.85;3.55;;;3.50;99.90;;;;;;5010337;28;20186;-67
2023/03/15 07:06:03;;;;;;;4.27;2.83;;;3.60;99.90;;;;;;5009689;28;20185;-66
2023/03/15 07:08:29;;;;;;;5.80;2.53;;;3.60;99.90;;;;;;5010553;28;20326;-66
2023/03/15 07:10:55;;;;;;;6.60;2.90;;;3.90;99.90;;;;;;5007855;28;20476;-67
2023/03/15 07:13:20;;;;;;;9.03;2.80;;;3.30;99.90;;;;;;5009519;28;20190;-67
2023/03/15 07:15:55;;;;;;;3.77;2.97;;;4.30;99.90;;;;;;5008902;28;20286;-64
2023/03/15 07:18:21;;;;;;;4.68;2.50;;;4.30;99.90;;;;;;5005748;28;21299;-64
2023/03/15 07:20:46;;;;;;;3.42;3.03;;;5.30;99.90;;;;;;5011055;28;20199;-70
2023/03/15 07:23:12;;;;;;;6.33;3.23;;;5.40;99.90;;;;;;5009575;28;20321;-66
2023/03/15 07:25:38;;;;;;;4.93;2.53;;;6.30;99.90;;;;;;5007512;28;20594;-68
2023/03/15 07:28:04;;;;;;;5.60;2.60;;;7.10;98.10;;;;;;5010012;28;20194;-70
2023/03/15 07:30:29;;;;;;;4.13;2.80;;;7.90;96.30;;;;;;5010018;28;20223;-67
2023/03/15 07:32:55;;;;;;;7.10;2.97;;;9.50;94.20;;;;;;5009580;28;20522;-69
2023/03/15 07:35:21;;;;;;;3.20;2.40;;;9.60;91.40;;;;;;5007504;28;20196;-66
2023/03/15 07:37:46;;;;;;;3.27;2.40;;;10.50;90.10;;;;;;5007550;28;20221;-66
2023/03/15 07:40:13;;;;;;;4.17;2.73;;;10.50;85.70;;;;;;5009615;28;20668;-69
2023/03/15 07:42:39;;;;;;;3.22;1.92;;;12.10;82.80;;;;;;5007358;28;20197;-68
2023/03/15 07:45:05;;;;;;;3.75;1.80;;;12.10;78.40;;;;;;5008147;28;20715;-68
2023/03/15 07:47:31;;;;;;;9.20;2.25;;;12.40;77.60;;;;;;5008616;28;20202;-70
2023/03/15 07:49:57;;;;;;;3.63;2.50;;;12.90;76.50;;;;;;5008036;28;20210;-68
2023/03/15 07:52:23;;;;;;;3.20;2.20;;;12.70;75.40;;;;;;5004170;28;20195;-69
2023/03/15 07:54:49;;;;;;;3.65;1.65;;;12.90;74.20;;;;;;5009326;28;20454;-67
2023/03/15 07:57:15;;;;;;;3.47;1.90;;;12.90;73.90;;;;;;5038515;28;20553;-67
2023/03/15 07:59:40;;;;;;;3.33;2.27;;;12.90;73.50;;;;;;5009527;28;20213;-68
2023/03/15 08:02:08;;;;;;;4.60;2.33;;;13.60;71.80;;;;;;5007315;28;20187;-71
2023/03/15 08:04:34;;;;;;;5.65;3.50;;;13.10;72.40;;;;;;5040813;28;20211;-72
2023/03/15 08:07:00;;;;;;;5.07;2.40;;;13.00;72.30;;;;;;5011638;28;20276;-71
2023/03/15 08:09:25;;;;;;;9.32;7.85;;;12.60;73.40;;;;;;5009296;28;20229;-70
2023/03/15 08:11:51;;;;;;;4.90;1.70;;;13.00;71.10;;;;;;5010259;28;20191;-70
2023/03/15 08:14:17;;;;;;;4.70;2.00;;;12.00;72.30;;;;;;5010052;28;20178;-70
2023/03/15 08:16:42;;;;;;;4.83;1.97;;;11.70;73.70;;;;;;5039942;28;20193;-69
2023/03/15 08:19:08;;;;;;;3.93;1.93;;;11.70;74.90;;;;;;5009336;28;20265;-71
2023/03/15 08:21:34;;;;;;;4.27;1.83;;;11.50;76.60;;;;;;5037703;28;20288;-71
2023/03/15 08:23:59;;;;;;;4.57;2.27;;;11.80;77.40;;;;;;5010237;28;20175;-72
2023/03/15 08:26:25;;;;;;;3.40;1.87;;;11.30;76.10;;;;;;5008716;28;20210;-67
2023/03/15 08:28:51;;;;;;;2.07;1.67;;;11.50;75.80;;;;;;5008918;28;20782;-68
2023/03/15 08:31:16;;;;;;;4.73;2.47;;;11.30;77.50;;;;;;5009236;28;20680;-70
2023/03/15 08:33:42;;;;;;;2.57;2.00;;;11.10;77.50;;;;;;5006836;28;20317;-70
2023/03/15 08:36:08;;;;;;;2.80;1.20;;;10.90;77.00;;;;;;5006528;28;20655;-69
2023/03/15 08:38:34;;;;;;;4.50;2.30;;;10.50;78.30;;;;;;5006548;28;20210;-74
2023/03/15 08:41:02;;;;;;;6.33;2.77;;;10.50;79.00;;;;;;5005322;28;20573;-69
2023/03/15 08:43:28;;;;;;;2.40;1.70;;;10.40;80.60;;;;;;5006142;28;20186;-70
2023/03/15 08:45:53;;;;;;;2.63;2.10;;;10.60;81.70;;;;;;5007589;28;20342;-68
2023/03/15 08:48:19;;;;;;;4.10;2.70;;;11.20;78.90;;;;;;5007079;28;20209;-67
2023/03/15 08:50:45;;;;;;;2.80;1.93;;;11.60;79.90;;;;;;5004845;28;20253;-70
2023/03/15 08:53:10;;;;;;;3.20;1.40;;;12.30;75.70;;;;;;5007801;28;20463;-68
2023/03/15 08:55:37;;;;;;;3.60;1.73;;;12.30;74.70;;;;;;5004525;28;20555;-69
2023/03/15 08:58:03;;;;;;;3.75;1.73;;;12.00;73.60;;;;;;5005891;28;20289;-70
2023/03/15 09:00:30;;;;;;;2.83;2.05;;;12.20;71.00;;;;;;5005384;28;20223;-71
2023/03/15 09:02:56;;;;;;;3.42;2.00;;;11.20;70.60;;;;;;5007085;28;20237;-71
2023/03/15 09:05:24;;;;;;;3.35;1.73;;;11.50;70.50;;;;;;5003990;28;20273;-67
2023/03/15 09:07:51;;;;;;;3.40;1.70;;;11.40;71.60;;;;;;5003694;28;20209;-67
2023/03/15 09:10:18;;;;;;;4.55;1.85;;;11.10;73.20;;;;;;5005218;28;20203;-68
2023/03/15 09:12:46;;;;;;;2.42;1.65;;;10.70;74.80;;;;;;5008444;28;20194;-69
2023/03/15 09:15:12;;;;;;;4.03;2.20;;;11.10;75.50;;;;;;5008301;28;20193;-69
2023/03/15 09:17:41;;;;;;;3.15;1.85;;;10.80;74.50;;;;;;5007823;28;20246;-68
2023/03/15 09:20:13;;;;;;;6.38;2.55;;;10.50;72.30;;;;;;5002421;28;20217;-67
2023/03/15 09:22:40;;;;;;;4.15;2.00;;;10.80;73.70;;;;;;5008061;28;20255;-67
2023/03/15 09:25:07;;;;;;;6.03;1.77;;;10.40;75.40;;;;;;5006104;28;20639;-67
2023/03/15 09:27:32;;;;;;;2.60;1.70;;;10.10;74.90;;;;;;5007007;28;20571;-69
2023/03/15 09:29:59;;;;;;;5.10;1.70;;;10.20;78.10;;;;;;5003745;28;20309;-67
2023/03/15 09:32:25;;;;;;;6.30;2.22;;;9.90;79.20;;;;;;5008191;28;20472;-71
2023/03/15 09:34:50;;;;;;;3.70;2.13;;;9.70;78.30;;;;;;5020759;28;20189;-69
2023/03/15 09:37:17;;;;;;;3.03;1.67;;;9.80;78.40;;;;;;5003935;28;20266;-67
2023/03/15 09:39:42;;;;;;;4.47;2.00;;;9.80;78.30;;;;;;5000488;28;20232;-67
2023/03/15 09:42:31;;;;;;;4.00;1.80;;;9.50;78.60;;;;;;5037912;28;20215;-68
2023/03/15 09:45:13;;;;;;;7.78;1.80;;;9.50;78.40;;;;;;5003994;28;20242;-69
2023/03/15 09:47:50;;;;;;;5.63;4.40;;;9.00;77.80;;;;;;5006471;28;20188;-68
2023/03/15 09:50:28;;;;;;;2.08;1.60;;;9.40;79.80;;;;;;5002026;28;20317;-70
2023/03/15 09:52:59;;;;;;;2.90;1.75;;;9.00;80.80;;;;;;5005700;28;20257;-69
2023/03/15 09:55:26;;;;;;;4.07;1.92;;;9.00;80.80;;;;;;4998897;28;20184;-70
2023/03/15 09:58:02;;;;;;;1.75;1.50;;;9.40;81.30;;;;;;5018494;28;20213;-68
2023/03/15 10:00:39;;;;;;;3.47;2.70;;;8.80;81.20;;;;;;5004221;28;20207;-70
2023/03/15 10:03:12;;;;;;;2.60;1.30;;;8.60;82.00;;;;;;5003820;28;20198;-68
2023/03/15 10:05:43;;;;;;;3.15;1.83;;;8.90;83.80;;;;;;5006329;28;20191;-68
2023/03/15 10:08:11;;;;;;;5.25;1.50;;;8.40;82.50;;;;;;5005102;28;20257;-67
2023/03/15 10:10:45;;;;;;;2.85;1.42;;;8.50;80.60;;;;;;5014839;28;20219;-68
2023/03/15 10:13:38;;;;;;;2.85;1.60;;;8.80;80.80;;;;;;5005453;28;20190;-68
2023/03/15 10:16:24;;;;;;;6.00;1.48;;;9.10;81.00;;;;;;5006581;28;20310;-68
2023/03/15 10:19:04;;;;;;;2.33;1.15;;;9.10;80.50;;;;;;5005282;28;20215;-68
2023/03/15 10:21:41;;;;;;;2.13;1.55;;;9.30;78.00;;;;;;5004907;28;20673;-68
2023/03/15 10:24:18;;;;;;;4.15;1.30;;;9.70;77.50;;;;;;5006514;28;20307;-68
2023/03/15 10:26:43;;;;;;;1.13;1.00;;;10.40;73.80;;;;;;5019520;28;20738;-70
2023/03/15 10:29:15;;;;;;;2.07;1.50;;;10.90;72.80;;;;;;5010032;28;20198;-69
2023/03/15 10:31:45;;;;;;;4.75;1.38;;;10.70;72.50;;;;;;5010583;28;20193;-70
2023/03/15 10:34:11;;;;;;;3.88;1.27;;;11.00;73.70;;;;;;5006902;28;20222;-69
2023/03/15 10:36:43;;;;;;;1.83;1.20;;;10.80;72.80;;;;;;5006200;28;20587;-69
2023/03/15 10:39:10;;;;;;;3.53;1.55;;;10.20;72.10;;;;;;5008977;28;20216;-68
2023/03/15 10:41:47;;;;;;;1.30;1.10;;;10.50;72.40;;;;;;5009856;28;20215;-67
2023/03/15 10:44:24;;;;;;;3.55;2.20;;;10.50;71.40;;;;;;5009544;28;20186;-68
2023/03/15 10:47:12;;;;;;;1.98;1.25;;;10.50;72.10;;;;;;5008694;28;20186;-70
2023/03/15 10:49:40;;;;;;;2.80;1.42;;;11.30;72.70;;;;;;5006111;28;20220;-69
2023/03/15 10:52:23;;;;;;;2.40;1.45;;;11.40;69.30;;;;;;5008665;28;20214;-69
2023/03/15 10:54:50;;;;;;;1.85;1.33;;;11.30;69.30;;;;;;5007395;28;20233;-68
2023/03/15 10:57:18;;;;;;;2.17;1.38;;;11.20;70.00;;;;;;5007006;28;20214;-68
2023/03/15 10:59:58;;;;;;;1.95;1.50;;;11.50;69.00;;;;;;5007776;28;20207;-69
2023/03/15 11:02:24;;;;;;;2.65;2.00;;;11.40;70.00;;;;;;5008360;28;20182;-68
2023/03/15 11:05:00;;;;;;;3.42;1.58;;;11.40;69.20;;;;;;5007244;28;20186;-68
2023/03/15 11:07:26;;;;;;;1.67;0.95;;;11.00;69.70;;;;;;5022601;28;20543;-71
2023/03/15 11:09:53;;;;;;;1.80;1.27;;;11.00;70.30;;;;;;5005092;28;20209;-72
2023/03/15 11:12:30;;;;;;;2.53;1.20;;;10.90;71.60;;;;;;5008974;28;20186;-71
2023/03/15 11:15:09;;;;;;;3.70;1.27;;;10.80;72.10;;;;;;5007675;28;20185;-70
2023/03/15 11:17:42;;;;;;;3.80;1.65;;;10.80;71.60;;;;;;5003756;28;20212;-70
2023/03/15 11:20:24;;;;;;;2.35;1.40;;;10.60;74.00;;;;;;5008528;28;20205;-73
2023/03/15 11:22:52;;;;;;;1.40;1.10;;;9.70;75.00;;;;;;5008509;28;20193;-69
2023/03/15 11:25:19;;;;;;;2.75;1.10;;;9.60;76.00;;;;;;5006807;28;20187;-69
2023/03/15 11:27:50;;;;;;;6.35;1.45;;;9.80;75.90;;;;;;5008662;28;20650;-69
2023/03/15 11:30:17;;;;;;;1.45;1.33;;;9.60;76.50;;;;;;5007487;28;20233;-70
2023/03/15 11:32:45;;;;;;;1.65;1.27;;;9.60;75.90;;;;;;5008267;28;20203;-67
2023/03/15 11:35:23;;;;;;;3.50;2.53;;;9.80;76.80;;;;;;5008982;28;20235;-68
2023/03/15 11:38:00;;;;;;;2.55;1.27;;;10.00;76.10;;;;;;5002963;28;20770;-69
2023/03/15 11:40:33;;;;;;;2.05;1.02;;;9.70;75.50;;;;;;5004696;28;20308;-68
2023/03/15 11:43:05;;;;;;;1.65;1.20;;;9.70;75.00;;;;;;5005087;28;20555;-68
2023/03/15 11:45:50;;;;;;;2.45;1.00;;;10.10;74.40;;;;;;5002205;28;20211;-70
2023/03/15 11:48:39;;;;;;;2.75;1.38;;;9.90;74.80;;;;;;5008528;28;20226;-69
2023/03/15 11:51:07;;;;;;;3.80;1.83;;;10.00;73.20;;;;;;5007632;28;20224;-67
2023/03/15 11:53:40;;;;;;;2.17;1.30;;;10.00;74.50;;;;;;5005235;28;20192;-68
2023/03/15 11:56:47;;;;;;;3.55;1.70;;;10.10;75.00;;;;;;5005924;28;20188;-69
2023/03/15 11:59:17;;;;;;;3.22;1.17;;;10.20;72.50;;;;;;5006707;28;20231;-68
2023/03/15 12:01:50;;;;;;;2.55;1.10;;;10.00;68.80;;;;;;5007632;28;20761;-68
2023/03/15 12:04:27;;;;;;;1.67;1.45;;;9.70;69.20;;;;;;5004992;28;20350;-69
2023/03/15 12:06:55;;;;;;;1.60;1.10;;;9.70;71.10;;;;;;5008051;28;20200;-69
2023/03/15 12:09:35;;;;;;;7.53;1.73;;;9.70;71.50;;;;;;5006383;28;20230;-68
2023/03/15 12:12:01;;;;;;;4.78;3.13;;;9.70;70.20;;;;;;5005034;28;20181;-69
2023/03/15 12:14:32;;;;;;;1.92;1.02;;;10.00;69.10;;;;;;5004663;28;20196;-69
2023/03/15 12:17:22;;;;;;;1.20;1.10;;;9.90;69.30;;;;;;5008124;28;20202;-68
2023/03/15 12:20:08;;;;;;;3.05;1.70;;;9.70;70.60;;;;;;5006032;28;20204;-68
2023/03/15 12:22:34;;;;;;;5.50;1.05;;;9.90;71.70;;;;;;5006212;28;20271;-70
2023/03/15 12:25:28;;;;;;;1.67;1.23;;;10.40;69.30;;;;;;5007477;28;20176;-71
2023/03/15 12:27:55;;;;;;;3.13;1.15;;;9.90;70.60;;;;;;4997287;28;20203;-71
2023/03/15 12:30:34;;;;;;;1.10;0.90;;;10.30;69.70;;;;;;5008884;28;20217;-70
2023/03/15 12:33:01;;;;;;;1.60;1.20;;;10.40;69.20;;;;;;5009060;28;20180;-70
2023/03/15 12:35:35;;;;;;;2.28;0.82;;;10.10;70.20;;;;;;5006036;28;20189;-70
2023/03/15 12:38:01;;;;;;;2.00;1.42;;;10.30;69.80;;;;;;5010768;28;20304;-67
2023/03/15 12:40:27;;;;;;;3.28;0.90;;;10.10;68.10;;;;;;5001514;28;20596;-70
2023/03/15 12:42:53;;;;;;;1.67;1.00;;;10.40;69.00;;;;;;5007883;28;20181;-69
2023/03/15 12:45:19;;;;;;;2.50;0.93;;;10.30;69.10;;;;;;5008529;28;20258;-70
2023/03/15 12:47:51;;;;;;;1.55;1.00;;;10.00;69.80;;;;;;5007266;28;20264;-70
2023/03/15 12:50:46;;;;;;;2.35;0.90;;;10.30;71.50;;;;;;5009599;28;20290;-70
2023/03/15 12:53:30;;;;;;;2.95;1.17;;;10.50;70.80;;;;;;5041457;28;20272;-70
2023/03/15 12:56:10;;;;;;;1.88;1.10;;;10.50;68.90;;;;;;5006457;28;20208;-67
2023/03/15 12:58:37;;;;;;;1.67;1.00;;;10.70;69.40;;;;;;5008178;28;20213;-68
2023/03/15 13:01:06;;;;;;;3.00;1.00;;;10.60;70.90;;;;;;5007779;28;20214;-70